Time;durP1;ratioP1;P1;durP2;ratioP2;P2;SDS_P1;SDS_P2;PMS_P1;PMS_P2;Temp;Humidity;BMP_temperature;BMP_pressure;BME280_temperature;BME280_humidity;BME280_pressure;Samples;Min_cycle;Max_cycle;Signal;HPM_P1;HPM_P2
2022/03/18 00:00:24;;;;;;;16.73;9.15;;;;;;;14.06;63.58;102063.97;2056543;28;20039;-81
2022/03/18 00:01:47;;;;;;;18.75;10.77;;;;;;;14.09;63.44;102063.16;2060805;28;20121;-81
2022/03/18 00:03:09;;;;;;;14.90;6.72;;;;;;;14.11;63.30;102061.47;2074447;28;20363;-81
2022/03/18 00:04:31;;;;;;;17.67;9.00;;;;;;;14.11;63.19;102062.31;2081187;28;20140;-81
2022/03/18 00:05:53;;;;;;;15.55;9.13;;;;;;;14.12;63.28;102063.22;2087006;28;20053;-81
2022/03/18 00:07:15;;;;;;;16.38;8.02;;;;;;;14.12;63.23;102064.13;2065570;28;20497;-81
2022/03/18 00:08:37;;;;;;;22.52;14.20;;;;;;;14.14;63.23;102066.81;2067108;28;20541;-80
2022/03/18 00:09:59;;;;;;;23.60;11.02;;;;;;;14.13;63.16;102060.59;2063025;28;20134;-81
2022/03/18 00:11:21;;;;;;;22.90;10.05;;;;;;;14.13;63.19;102071.22;2064027;28;20057;-81
2022/03/18 00:12:45;;;;;;;14.30;6.55;;;;;;;14.11;63.20;102062.31;2069721;28;20080;-81
2022/03/18 00:14:08;;;;;;;19.90;8.95;;;;;;;14.09;63.36;102073.78;2063440;28;20054;-81
2022/03/18 00:15:31;;;;;;;12.32;6.82;;;;;;;14.04;63.42;102060.44;2076129;28;20572;-81
2022/03/18 00:16:56;;;;;;;13.88;7.53;;;;;;;14.01;63.33;102062.09;2070999;28;20037;-81
2022/03/18 00:18:18;;;;;;;17.27;7.88;;;;;;;13.95;63.40;102069.06;2068926;28;20743;-82
2022/03/18 00:19:40;;;;;;;18.90;7.25;;;;;;;13.90;63.36;102073.38;2068721;28;20042;-82
2022/03/18 00:21:03;;;;;;;14.45;8.02;;;;;;;13.85;63.38;102068.81;2070990;28;20049;-82
2022/03/18 00:22:24;;;;;;;16.55;7.68;;;;;;;13.78;63.48;102067.78;2060681;28;20057;-81
2022/03/18 00:23:47;;;;;;;18.15;7.82;;;;;;;13.74;63.53;102070.31;2069399;28;20513;-83
2022/03/18 00:25:10;;;;;;;16.60;8.07;;;;;;;13.71;63.57;102067.59;2066045;28;20088;-82
2022/03/18 00:26:33;;;;;;;10.55;5.63;;;;;;;13.65;63.98;102067.47;2071159;28;20045;-82
2022/03/18 00:27:57;;;;;;;19.42;9.07;;;;;;;13.63;63.75;102058.56;2077115;28;20164;-82
2022/03/18 00:29:18;;;;;;;13.80;7.13;;;;;;;13.59;64.36;102068.19;2062546;28;20057;-82
2022/03/18 00:30:41;;;;;;;15.85;5.82;;;;;;;13.56;64.34;102055.75;2068308;28;20042;-82
2022/03/18 00:32:05;;;;;;;12.18;6.68;;;;;;;13.53;64.47;102063.63;2071210;28;20053;-81
2022/03/18 00:33:27;;;;;;;20.23;9.15;;;;;;;13.49;64.49;102067.09;2071496;28;20053;-81
2022/03/18 00:34:50;;;;;;;15.85;7.10;;;;;;;13.46;64.84;102068.75;2063816;28;20093;-82
2022/03/18 00:36:13;;;;;;;21.52;9.23;;;;;;;13.45;64.81;102072.28;2062763;28;20058;-81
2022/03/18 00:37:36;;;;;;;14.95;6.50;;;;;;;13.42;64.80;102081.06;2065862;28;20524;-81
2022/03/18 00:38:58;;;;;;;17.52;7.30;;;;;;;13.39;64.82;102070.34;2076265;28;20103;-81
2022/03/18 00:40:20;;;;;;;17.15;7.13;;;;;;;13.36;64.79;102067.63;2062466;28;20118;-82
2022/03/18 00:41:42;;;;;;;17.90;7.38;;;;;;;13.35;64.75;102063.19;2066183;28;20049;-82
2022/03/18 00:43:05;;;;;;;17.60;9.50;;;;;;;13.33;64.71;102072.84;2076944;28;20116;-81
2022/03/18 00:44:27;;;;;;;17.63;8.32;;;;;;;13.30;64.60;102078.09;2087448;28;20044;-82
2022/03/18 00:45:50;;;;;;;16.73;7.47;;;;;;;13.28;64.58;102068.28;2079769;28;20068;-81
2022/03/18 00:52:14;;;;;;;20.65;8.32;;;;;;;13.17;64.01;102083.94;2072641;28;20049;-82
2022/03/18 00:53:36;;;;;;;17.33;7.72;;;;;;;13.14;63.95;102070.59;2078932;28;20051;-82
2022/03/18 00:54:59;;;;;;;20.33;6.97;;;;;;;13.13;63.88;102077.63;2065404;28;20149;-82
2022/03/18 00:56:21;;;;;;;19.00;8.90;;;;;;;13.13;64.02;102076.75;2060328;28;20441;-83
2022/03/18 00:57:43;;;;;;;18.60;8.63;;;;;;;13.12;63.91;102077.59;2065113;28;20054;-83
2022/03/18 00:59:06;;;;;;;19.92;7.68;;;;;;;13.10;63.91;102074.88;2060367;28;20057;-83
2022/03/18 01:00:28;;;;;;;16.85;7.70;;;;;;;13.08;63.85;102070.38;2081168;28;20037;-83
2022/03/18 01:01:52;;;;;;;12.30;5.47;;;;;;;13.07;63.82;102066.84;2075690;28;20132;-83
2022/03/18 01:03:16;;;;;;;15.77;8.13;;;;;;;13.06;63.75;102074.78;2078636;28;20547;-82
2022/03/18 01:04:39;;;;;;;26.00;6.55;;;;;;;13.03;63.75;102072.94;2062893;28;20050;-82
2022/03/18 01:06:01;;;;;;;18.42;8.25;;;;;;;13.03;63.75;102077.34;2067787;28;20144;-82
2022/03/18 01:07:22;;;;;;;14.05;6.40;;;;;;;13.02;63.56;102087.03;2070619;28;20536;-82
2022/03/18 01:08:45;;;;;;;15.85;7.53;;;;;;;13.00;63.58;102085.19;2079007;28;20060;-84
2022/03/18 01:10:09;;;;;;;18.55;7.97;;;;;;;12.99;63.51;102086.97;2064877;28;20070;-83
2022/03/18 01:11:32;;;;;;;14.10;7.32;;;;;;;12.99;63.47;102086.97;2069413;28;20053;-82
2022/03/18 01:12:55;;;;;;;23.70;9.82;;;;;;;12.99;63.48;102089.63;2070987;28;20041;-82
2022/03/18 01:14:18;;;;;;;17.73;8.15;;;;;;;12.99;63.39;102086.06;2060268;28;20088;-82
2022/03/18 01:15:39;;;;;;;15.52;8.00;;;;;;;12.98;63.27;102086.91;2068211;28;20050;-82
2022/03/18 01:17:02;;;;;;;21.10;8.00;;;;;;;12.98;63.21;102084.28;2070672;28;20053;-82
2022/03/18 01:18:26;;;;;;;17.10;7.07;;;;;;;12.97;63.23;102090.44;2070727;28;20041;-82
2022/03/18 01:19:49;;;;;;;20.48;8.05;;;;;;;12.92;63.12;102092.97;2072231;28;20476;-82
2022/03/18 01:21:11;;;;;;;8.10;3.83;;;;;;;12.92;63.17;102092.06;2072637;28;20107;-82
2022/03/18 01:22:34;;;;;;;19.80;9.13;;;;;;;12.91;63.22;102087.63;2083669;28;20072;-81
2022/03/18 01:23:55;;;;;;;11.45;5.30;;;;;;;12.90;63.12;102093.75;2072060;28;20041;-82
2022/03/18 01:25:18;;;;;;;18.17;7.63;;;;;;;12.88;63.11;102095.47;2059891;28;20501;-82
2022/03/18 01:26:40;;;;;;;18.23;8.30;;;;;;;12.86;63.10;102091.91;2075161;28;20124;-82
2022/03/18 01:28:03;;;;;;;17.20;8.07;;;;;;;12.85;62.94;102095.41;2070620;28;20155;-81
2022/03/18 01:29:26;;;;;;;18.17;7.55;;;;;;;12.86;62.99;102103.41;2076252;28;20042;-82
2022/03/18 01:30:48;;;;;;;12.15;6.03;;;;;;;12.84;62.99;102105.09;2087065;28;20157;-82
2022/03/18 01:32:11;;;;;;;15.25;7.68;;;;;;;12.83;62.88;102099.75;2081256;28;20041;-82
2022/03/18 01:33:36;;;;;;;12.00;4.75;;;;;;;12.82;62.73;102101.50;2070489;28;20065;-82
2022/03/18 01:34:59;;;;;;;13.95;5.72;;;;;;;12.80;62.73;102105.84;2063427;28;20042;-82
2022/03/18 01:36:22;;;;;;;15.38;7.32;;;;;;;12.81;62.63;102106.75;2068747;28;20080;-84
2022/03/18 01:37:45;;;;;;;14.57;6.60;;;;;;;12.82;62.52;102104.16;2049098;29;20051;-84
2022/03/18 01:39:06;;;;;;;19.23;8.57;;;;;;;12.84;62.53;102113.03;2065904;28;20398;-84
2022/03/18 01:40:29;;;;;;;15.45;6.85;;;;;;;12.84;62.56;102098.91;2060188;28;20088;-83
2022/03/18 01:41:52;;;;;;;16.98;7.95;;;;;;;12.82;62.46;102106.78;2060005;28;20051;-82
2022/03/18 01:43:13;;;;;;;15.30;7.70;;;;;;;12.81;62.41;102112.94;2076234;28;20042;-82
2022/03/18 01:44:43;;;;;;;20.08;8.05;;;;;;;12.84;62.44;102114.78;2065280;28;20038;-81
2022/03/18 01:46:05;;;;;;;14.55;7.80;;;;;;;12.81;62.28;102112.03;2063215;28;20050;-83
2022/03/18 01:47:28;;;;;;;17.35;7.85;;;;;;;12.81;61.99;102117.34;2076191;28;20051;-82
2022/03/18 01:48:51;;;;;;;21.90;8.82;;;;;;;12.82;61.96;102116.50;2073104;28;20385;-82
2022/03/18 01:50:14;;;;;;;17.38;7.20;;;;;;;12.78;61.72;102124.38;2060097;28;20108;-82
2022/03/18 01:51:37;;;;;;;15.95;6.80;;;;;;;12.79;61.81;102127.94;2059314;28;20462;-82
2022/03/18 01:53:01;;;;;;;16.00;7.40;;;;;;;12.78;61.65;102116.44;2068268;28;20149;-82
2022/03/18 01:56:03;;;;;;;15.25;6.93;;;;;;;12.80;61.38;102127.03;2064038;28;20054;-81
2022/03/18 01:57:28;;;;;;;17.88;9.38;;;;;;;12.77;61.38;102124.31;2059870;28;20050;-81
2022/03/18 01:58:51;;;;;;;18.50;6.10;;;;;;;12.75;61.30;102123.38;2076821;28;20053;-82
2022/03/18 02:00:14;;;;;;;14.90;7.25;;;;;;;12.72;60.52;102121.56;2064599;28;20166;-82
2022/03/18 02:01:36;;;;;;;10.20;4.65;;;;;;;12.69;60.27;102123.19;2062749;28;20503;-82
2022/03/18 02:02:59;;;;;;;17.67;7.55;;;;;;;12.67;60.36;102115.19;2078626;28;20053;-81
2022/03/18 02:04:24;;;;;;;23.15;8.82;;;;;;;12.67;60.47;102117.84;2064467;28;20054;-81
2022/03/18 02:05:46;;;;;;;19.13;7.57;;;;;;;12.67;60.36;102120.50;2052218;28;20070;-82
2022/03/18 02:07:11;;;;;;;7.95;3.88;;;;;;;12.69;60.41;102118.81;2052410;28;20047;-82
2022/03/18 02:08:35;;;;;;;15.65;5.50;;;;;;;12.68;60.35;102121.41;2052468;28;20461;-82
2022/03/18 02:09:56;;;;;;;16.48;8.20;;;;;;;12.66;60.47;102125.78;2060185;28;20494;-82
2022/03/18 02:11:18;;;;;;;17.55;7.55;;;;;;;12.65;60.48;102138.13;2068206;28;20060;-83
2022/03/18 02:12:41;;;;;;;20.70;7.68;;;;;;;12.65;60.57;102135.47;2057059;28;20135;-82
2022/03/18 02:14:03;;;;;;;10.73;5.13;;;;;;;12.64;60.51;102128.38;2058563;28;20046;-82
2022/03/18 02:15:26;;;;;;;10.10;6.05;;;;;;;12.61;60.25;102122.97;2062104;28;20050;-82
2022/03/18 02:16:49;;;;;;;15.40;7.40;;;;;;;12.58;60.10;102120.25;2070461;28;20088;-82
2022/03/18 02:18:11;;;;;;;13.38;6.85;;;;;;;12.57;60.06;102120.19;2055689;28;20062;-82
2022/03/18 02:19:36;;;;;;;19.60;8.07;;;;;;;12.56;59.65;102121.94;2070642;28;20041;-82
2022/03/18 02:20:58;;;;;;;16.00;8.30;;;;;;;12.54;59.45;102118.34;2064835;28;20145;-83
2022/03/18 02:22:21;;;;;;;15.10;7.00;;;;;;;12.54;59.48;102110.41;2067915;28;20088;-82
2022/03/18 02:23:46;;;;;;;14.82;6.15;;;;;;;12.53;59.06;102115.69;2068632;28;20054;-82
2022/03/18 02:25:12;;;;;;;12.70;5.63;;;;;;;12.51;58.75;102125.31;2062237;28;20057;-82
2022/03/18 02:26:34;;;;;;;12.95;6.15;;;;;;;12.49;58.22;102127.00;2060625;28;20512;-83
2022/03/18 02:27:59;;;;;;;17.73;6.70;;;;;;;12.48;57.94;102134.06;2075788;28;20393;-82
2022/03/18 02:29:22;;;;;;;16.55;7.47;;;;;;;12.48;58.10;102134.06;2066993;28;20058;-82
2022/03/18 02:30:44;;;;;;;16.67;7.45;;;;;;;12.47;57.92;102131.41;2076163;28;20041;-81
2022/03/18 02:32:07;;;;;;;15.52;6.00;;;;;;;12.45;57.66;102138.38;2057544;28;20047;-82
2022/03/18 02:33:30;;;;;;;18.02;6.78;;;;;;;12.43;57.63;102140.06;2059654;28;20046;-82
2022/03/18 02:34:53;;;;;;;11.05;6.13;;;;;;;12.42;57.58;102140.91;2056488;28;20055;-82
2022/03/18 02:36:15;;;;;;;12.13;6.10;;;;;;;12.41;57.53;102141.78;2058337;28;20050;-82
2022/03/18 02:37:38;;;;;;;10.57;4.45;;;;;;;12.40;57.40;102140.91;2057290;28;20088;-82
2022/03/18 02:39:01;;;;;;;15.48;6.45;;;;;;;12.41;57.37;102141.78;2059559;28;20108;-82
2022/03/18 02:40:25;;;;;;;10.00;4.32;;;;;;;12.39;57.20;102141.75;2059651;28;20081;-82
2022/03/18 02:41:48;;;;;;;14.18;5.78;;;;;;;12.39;57.05;102149.69;2068370;28;20073;-82
2022/03/18 02:43:11;;;;;;;12.75;5.68;;;;;;;12.38;56.79;102145.25;2069921;28;20054;-82
2022/03/18 02:44:32;;;;;;;11.13;5.78;;;;;;;12.38;56.63;102156.75;2066693;28;20563;-82
2022/03/18 02:45:55;;;;;;;9.10;5.20;;;;;;;12.38;56.60;102139.94;2069834;28;20140;-83
2022/03/18 02:47:16;;;;;;;11.32;4.63;;;;;;;12.37;56.56;102143.44;2067417;28;20054;-82
2022/03/18 02:48:39;;;;;;;11.90;6.15;;;;;;;12.35;56.29;102148.69;2078265;28;20076;-82
2022/03/18 02:50:02;;;;;;;8.43;3.80;;;;;;;12.33;55.85;102146.88;2069990;28;20054;-82
2022/03/18 02:51:23;;;;;;;16.17;6.82;;;;;;;12.31;56.01;102146.81;2074669;28;20057;-82
2022/03/18 02:52:47;;;;;;;13.32;5.63;;;;;;;12.30;56.09;102122.91;2086343;28;20598;-83
2022/03/18 02:54:12;;;;;;;14.20;5.85;;;;;;;12.29;55.89;102137.00;2080728;28;20140;-83
2022/03/18 02:55:35;;;;;;;10.20;6.13;;;;;;;12.28;56.04;102140.50;2078652;28;20037;-83
2022/03/18 02:56:57;;;;;;;14.38;6.20;;;;;;;12.27;56.00;102141.38;2072183;28;20461;-83
2022/03/18 02:58:20;;;;;;;17.23;6.80;;;;;;;12.28;56.04;102145.78;2072369;28;20099;-83
2022/03/18 02:59:42;;;;;;;13.07;5.82;;;;;;;12.27;56.09;102142.25;2053582;28;20053;-82
2022/03/18 03:01:05;;;;;;;10.98;5.05;;;;;;;12.28;56.43;102145.78;2066444;28;20077;-82
2022/03/18 03:02:28;;;;;;;7.15;3.35;;;;;;;12.28;56.57;102154.63;2062168;28;20054;-83
2022/03/18 03:03:51;;;;;;;12.07;5.53;;;;;;;12.25;56.61;102154.56;2075730;28;20037;-83
2022/03/18 03:08:33;;;;;;;16.45;6.80;;;;;;;12.30;57.15;102162.63;2069193;28;20073;-82
2022/03/18 03:09:58;;;;;;;13.05;6.35;;;;;;;12.32;57.31;102156.56;2059559;28;20167;-82
2022/03/18 03:11:21;;;;;;;16.38;7.13;;;;;;;12.34;57.45;102157.47;2069887;28;20081;-82
2022/03/18 03:12:42;;;;;;;16.23;8.20;;;;;;;12.36;57.52;102158.44;2067056;28;20065;-82
2022/03/18 03:14:06;;;;;;;8.90;4.40;;;;;;;12.38;57.85;102155.84;2056329;28;20058;-83
2022/03/18 03:15:27;;;;;;;12.27;6.45;;;;;;;12.37;58.09;102161.97;2073357;28;20090;-82
2022/03/18 03:16:50;;;;;;;11.55;5.70;;;;;;;12.36;58.13;102161.09;2086295;28;20049;-82
2022/03/18 03:18:11;;;;;;;12.68;6.63;;;;;;;12.35;58.14;102166.31;2072557;28;20149;-82
2022/03/18 03:19:34;;;;;;;14.05;7.00;;;;;;;12.35;58.12;102168.97;2075483;28;20056;-82
2022/03/18 03:20:55;;;;;;;14.77;7.25;;;;;;;12.36;58.25;102160.19;2070012;28;20736;-82
2022/03/18 03:22:18;;;;;;;12.48;6.47;;;;;;;12.36;58.20;102169.03;2078154;28;20057;-82
2022/03/18 03:23:40;;;;;;;16.50;6.53;;;;;;;12.41;58.21;102168.25;2064712;28;20069;-83
2022/03/18 03:25:05;;;;;;;12.43;5.88;;;;;;;12.43;58.34;102166.56;2074268;28;20119;-83
2022/03/18 03:26:28;;;;;;;11.55;5.60;;;;;;;12.41;58.46;102162.97;2070237;28;20103;-82
2022/03/18 03:27:51;;;;;;;13.45;5.63;;;;;;;12.43;58.44;102174.50;2071697;28;20767;-82
2022/03/18 03:29:14;;;;;;;15.02;7.32;;;;;;;12.43;58.43;102171.84;2055898;28;20053;-82
2022/03/18 03:30:35;;;;;;;17.65;7.72;;;;;;;12.46;58.47;102169.31;2066896;28;20129;-83
2022/03/18 03:31:58;;;;;;;16.40;7.57;;;;;;;12.48;58.81;102160.53;2079608;28;20056;-82
2022/03/18 03:33:21;;;;;;;12.30;6.82;;;;;;;12.51;58.89;102175.66;2079946;28;20136;-83
2022/03/18 03:34:42;;;;;;;16.60;8.23;;;;;;;12.52;59.08;102182.75;2079633;28;20123;-82
2022/03/18 03:36:05;;;;;;;14.77;8.50;;;;;;;12.52;59.27;102183.66;2079747;28;20046;-83
2022/03/18 03:37:27;;;;;;;16.42;8.25;;;;;;;12.54;59.52;102187.22;2071664;28;20128;-82
2022/03/18 03:38:50;;;;;;;17.00;7.13;;;;;;;12.56;59.59;102187.28;2085774;28;20044;-82
2022/03/18 03:40:14;;;;;;;10.93;5.30;;;;;;;12.58;59.70;102193.53;2071278;28;20431;-82
2022/03/18 03:41:36;;;;;;;16.95;7.07;;;;;;;12.56;59.70;102201.41;2071949;28;20053;-82
2022/03/18 03:42:58;;;;;;;12.80;6.15;;;;;;;12.57;59.71;102181.13;2063609;28;20054;-82
2022/03/18 03:44:20;;;;;;;14.23;6.40;;;;;;;12.56;59.66;102190.81;2061245;28;20406;-81
2022/03/18 03:45:42;;;;;;;17.27;7.53;;;;;;;12.56;59.66;102193.47;2068996;28;20095;-81
2022/03/18 03:47:05;;;;;;;14.63;6.82;;;;;;;12.56;59.64;102200.53;2077971;28;20045;-82
2022/03/18 03:48:27;;;;;;;13.13;5.97;;;;;;;12.57;59.62;102199.66;2079058;28;20095;-82
2022/03/18 03:49:48;;;;;;;11.52;5.32;;;;;;;12.56;59.65;102200.53;2079582;28;20033;-82
2022/03/18 03:51:11;;;;;;;13.82;5.78;;;;;;;12.58;59.93;102202.38;2072016;28;20058;-82
2022/03/18 03:52:34;;;;;;;16.00;6.57;;;;;;;12.61;60.08;102205.09;2065278;28;20046;-82
2022/03/18 03:53:57;;;;;;;13.35;7.28;;;;;;;12.65;60.16;102214.06;2069263;28;20394;-82
2022/03/18 03:55:21;;;;;;;15.30;6.47;;;;;;;12.69;60.25;102215.94;2077161;28;20135;-83
2022/03/18 03:56:42;;;;;;;12.15;6.38;;;;;;;12.69;60.53;102223.88;2089603;28;20127;-82
2022/03/18 03:58:05;;;;;;;18.05;7.10;;;;;;;12.68;60.60;102207.09;2076694;28;20045;-82
2022/03/18 03:59:26;;;;;;;17.05;6.50;;;;;;;12.69;60.65;102218.59;2068259;28;20075;-82
2022/03/18 04:00:49;;;;;;;15.82;6.68;;;;;;;12.69;60.66;102218.59;2076893;28;20084;-82
2022/03/18 04:02:10;;;;;;;22.13;7.68;;;;;;;12.68;60.56;102212.38;2081845;28;20044;-82
2022/03/18 04:03:33;;;;;;;19.80;8.25;;;;;;;12.70;60.53;102220.38;2081941;28;20039;-82
2022/03/18 04:04:57;;;;;;;15.35;6.90;;;;;;;12.67;60.34;102220.28;2077977;28;20417;-83
2022/03/18 04:06:20;;;;;;;10.68;6.20;;;;;;;12.64;60.10;102221.09;2069621;28;20052;-82
2022/03/18 04:07:44;;;;;;;9.00;4.25;;;;;;;12.63;60.06;102229.91;2071278;28;20140;-82
2022/03/18 04:09:06;;;;;;;12.05;6.45;;;;;;;12.62;60.09;102233.41;2077463;28;20042;-82
2022/03/18 04:10:30;;;;;;;15.07;7.88;;;;;;;12.63;60.06;102229.91;2073838;28;20041;-84
2022/03/18 04:11:53;;;;;;;15.75;6.72;;;;;;;12.65;60.00;102227.31;2077168;28;20467;-83
2022/03/18 04:13:18;;;;;;;14.63;6.65;;;;;;;12.63;59.82;102229.91;2065936;28;20050;-85
2022/03/18 04:14:39;;;;;;;19.30;7.85;;;;;;;12.62;59.83;102236.03;2072941;28;20156;-86
2022/03/18 04:16:02;;;;;;;12.90;6.25;;;;;;;12.60;59.66;102234.22;2071388;28;20571;-85
2022/03/18 04:17:26;;;;;;;18.13;6.82;;;;;;;12.55;59.73;102236.72;2068347;28;20116;-83
2022/03/18 04:18:49;;;;;;;12.45;6.70;;;;;;;12.54;59.62;102234.00;2081906;28;20041;-83
2022/03/18 04:20:11;;;;;;;11.63;5.63;;;;;;;12.51;59.46;102249.81;2065717;28;20056;-84
2022/03/18 04:21:34;;;;;;;12.40;5.63;;;;;;;12.47;59.43;102248.81;2074407;28;20049;-84
2022/03/18 04:22:57;;;;;;;18.48;6.88;;;;;;;12.47;59.18;102255.88;2079595;28;20106;-85
2022/03/18 04:24:18;;;;;;;16.40;6.65;;;;;;;12.49;59.22;102254.16;2058892;28;20053;-84
2022/03/18 04:25:42;;;;;;;16.10;6.43;;;;;;;12.50;59.21;102263.91;2058162;28;20487;-83
2022/03/18 04:27:04;;;;;;;13.50;5.90;;;;;;;12.50;59.14;102259.50;2069050;28;20060;-83
2022/03/18 04:28:26;;;;;;;9.63;5.03;;;;;;;12.51;59.27;102257.75;2084944;28;20557;-83
2022/03/18 04:29:48;;;;;;;14.95;6.43;;;;;;;12.53;59.38;102264.03;2073478;28;20042;-83
2022/03/18 04:31:10;;;;;;;14.13;6.47;;;;;;;12.57;59.45;102265.91;2068046;28;20526;-83
2022/03/18 04:32:33;;;;;;;12.80;5.75;;;;;;;12.60;59.56;102271.31;2063111;28;20046;-83
2022/03/18 04:33:56;;;;;;;10.35;5.40;;;;;;;12.60;59.48;102274.81;2060559;28;20109;-83
2022/03/18 04:35:18;;;;;;;11.02;4.55;;;;;;;12.58;59.48;102268.59;2052840;28;20051;-83
2022/03/18 04:36:41;;;;;;;14.25;5.13;;;;;;;12.56;59.42;102267.66;2060893;28;20054;-83
2022/03/18 04:38:03;;;;;;;11.45;5.32;;;;;;;12.55;59.25;102267.59;2068709;28;20092;-82
2022/03/18 04:39:25;;;;;;;12.38;5.38;;;;;;;12.55;59.20;102276.44;2077192;28;20041;-83
2022/03/18 04:40:49;;;;;;;10.63;4.70;;;;;;;12.56;59.25;102280.91;2069109;28;20135;-83
2022/03/18 04:42:10;;;;;;;10.35;4.50;;;;;;;12.54;59.04;102272.00;2076970;28;20046;-83
2022/03/18 04:43:32;;;;;;;12.93;4.40;;;;;;;12.53;58.86;102270.22;2067254;28;20608;-83
2022/03/18 04:44:54;;;;;;;10.65;4.03;;;;;;;12.52;58.69;102270.16;2079348;28;20497;-83
2022/03/18 04:46:16;;;;;;;17.42;6.45;;;;;;;12.53;58.56;102272.88;2064885;28;20045;-84
2022/03/18 04:47:38;;;;;;;18.77;6.45;;;;;;;12.54;58.52;102276.38;2060361;28;20391;-83
2022/03/18 04:49:01;;;;;;;21.05;6.65;;;;;;;12.58;58.58;102273.91;2068863;28;20476;-84
2022/03/18 04:50:24;;;;;;;22.05;9.07;;;;;;;12.60;58.58;102281.91;2066073;28;20050;-83
2022/03/18 04:51:47;;;;;;;14.75;5.38;;;;;;;12.64;58.56;102284.69;2074060;28;20045;-84
2022/03/18 04:53:10;;;;;;;14.38;5.57;;;;;;;12.67;58.59;102291.81;2055095;28;20046;-83
2022/03/18 04:54:31;;;;;;;14.20;4.85;;;;;;;12.66;58.71;102288.31;2074367;28;20061;-83
2022/03/18 04:55:55;;;;;;;13.20;5.85;;;;;;;12.67;58.77;102284.78;2078891;28;20104;-83
2022/03/18 04:57:18;;;;;;;8.70;4.75;;;;;;;12.69;58.76;102288.38;2078939;28;20593;-83
2022/03/18 04:58:40;;;;;;;12.88;5.15;;;;;;;12.70;58.70;102299.88;2079232;28;20053;-83
2022/03/18 05:00:05;;;;;;;6.80;2.95;;;;;;;12.69;58.62;102296.31;2078971;28;20884;-83
2022/03/18 05:01:27;;;;;;;15.50;5.13;;;;;;;12.68;58.56;102294.53;2079283;28;20042;-83
2022/03/18 05:02:50;;;;;;;10.93;5.10;;;;;;;12.70;58.57;102295.50;2066946;28;20141;-84
2022/03/18 05:04:11;;;;;;;8.73;3.65;;;;;;;12.70;58.13;102306.09;2068324;28;20042;-83
2022/03/18 05:05:35;;;;;;;9.35;4.38;;;;;;;12.72;57.81;102303.50;2068051;28;20046;-84
2022/03/18 05:06:56;;;;;;;14.00;4.57;;;;;;;12.72;57.85;102309.69;2076399;28;20700;-84
2022/03/18 05:08:18;;;;;;;9.77;3.50;;;;;;;12.72;57.57;102309.69;2070802;28;20046;-84
2022/03/18 05:09:41;;;;;;;9.38;3.42;;;;;;;12.71;57.36;102302.59;2063958;28;20046;-83
2022/03/18 05:11:06;;;;;;;11.20;3.90;;;;;;;12.72;57.14;102309.69;2071018;28;20057;-83
2022/03/18 05:12:28;;;;;;;6.35;3.20;;;;;;;12.73;57.11;102300.88;2071182;28;20129;-83
2022/03/18 05:13:50;;;;;;;12.77;4.28;;;;;;;12.78;57.07;102309.88;2076222;28;20045;-84
2022/03/18 05:15:12;;;;;;;11.07;3.80;;;;;;;12.82;57.15;102312.63;2079041;28;20405;-83
2022/03/18 05:16:33;;;;;;;14.25;4.35;;;;;;;12.84;57.13;102311.81;2070786;28;20076;-83
2022/03/18 05:17:56;;;;;;;14.48;5.03;;;;;;;12.83;57.06;102303.81;2068080;28;20050;-83
2022/03/18 05:19:17;;;;;;;12.63;4.35;;;;;;;12.81;56.93;102300.22;2068518;28;20141;-83
2022/03/18 05:20:40;;;;;;;11.00;4.50;;;;;;;12.78;56.65;102306.34;2075216;28;20052;-83
2022/03/18 05:22:02;;;;;;;9.40;3.35;;;;;;;12.78;56.46;102314.28;2072599;28;20046;-84
2022/03/18 05:23:24;;;;;;;;;;;;;;;12.78;56.40;102315.19;2076772;28;20068;-83
2022/03/18 05:24:47;;;;;;;9.00;3.63;;;;;;;12.76;56.43;102319.53;2065531;28;19926;-84
2022/03/18 05:26:10;;;;;;;9.98;3.80;;;;;;;12.75;56.43;102322.13;2057073;28;20074;-84
2022/03/18 05:27:32;;;;;;;6.18;2.90;;;;;;;12.70;56.32;102324.63;2082049;28;20103;-83
2022/03/18 05:28:55;;;;;;;8.65;3.55;;;;;;;12.67;56.21;102321.88;2089131;28;20512;-84
2022/03/18 05:30:18;;;;;;;10.88;4.70;;;;;;;12.70;56.22;102326.38;2076436;28;20099;-83
2022/03/18 05:31:42;;;;;;;17.15;3.92;;;;;;;12.73;56.33;102334.44;2065134;28;20125;-83
2022/03/18 05:33:05;;;;;;;15.93;4.43;;;;;;;12.74;56.37;102334.47;2071369;28;20077;-85
2022/03/18 05:34:28;;;;;;;11.73;3.92;;;;;;;12.77;56.61;102336.31;2070464;28;20136;-81
2022/03/18 05:35:51;;;;;;;9.02;4.07;;;;;;;12.78;56.68;102330.19;2067833;28;20057;-80
2022/03/18 05:37:13;;;;;;;11.40;3.58;;;;;;;12.80;56.61;102341.72;2070399;28;20084;-81
2022/03/18 05:38:36;;;;;;;8.73;3.78;;;;;;;12.78;56.55;102347.00;2064416;28;20490;-81
2022/03/18 05:39:59;;;;;;;10.93;4.13;;;;;;;12.76;56.52;102338.06;2054582;28;20138;-80
2022/03/18 05:41:24;;;;;;;10.75;4.90;;;;;;;12.74;56.62;102334.47;2073252;28;20041;-80
2022/03/18 05:42:47;;;;;;;14.68;4.28;;;;;;;12.73;56.76;102345.91;2067320;28;20046;-81
2022/03/18 05:44:09;;;;;;;11.57;4.30;;;;;;;12.74;56.87;102355.66;2062590;28;20050;-80
2022/03/18 05:45:32;;;;;;;8.95;3.65;;;;;;;12.78;56.89;102348.72;2067885;28;20054;-80
2022/03/18 05:46:55;;;;;;;9.38;4.22;;;;;;;12.81;56.55;102355.84;2064994;28;20058;-83
2022/03/18 05:48:18;;;;;;;11.52;3.72;;;;;;;12.80;55.56;102354.97;2076276;28;20045;-84
2022/03/18 05:49:41;;;;;;;11.15;3.40;;;;;;;12.77;54.62;102357.53;2078284;28;20045;-83
2022/03/18 05:51:03;;;;;;;5.97;3.15;;;;;;;12.75;54.36;102352.16;2070878;28;20103;-84
2022/03/18 05:52:26;;;;;;;13.70;3.97;;;;;;;12.76;54.55;102347.78;2070758;28;20058;-83
2022/03/18 05:53:48;;;;;;;8.70;3.97;;;;;;;12.78;54.63;102346.09;2070666;28;20190;-84
2022/03/18 05:55:10;;;;;;;9.02;3.38;;;;;;;12.82;54.81;102341.75;2075921;28;20127;-84
2022/03/18 05:58:15;;;;;;;13.85;4.55;;;;;;;12.89;55.04;102344.66;2065107;28;20050;-84
2022/03/18 05:59:38;;;;;;;12.52;3.20;;;;;;;12.92;55.21;102347.44;2076343;28;20048;-83
2022/03/18 06:00:59;;;;;;;7.10;3.25;;;;;;;12.92;55.34;102347.44;2060749;28;20092;-83
2022/03/18 06:02:22;;;;;;;10.93;3.55;;;;;;;12.93;55.52;102345.69;2073045;28;20124;-83
2022/03/18 06:03:45;;;;;;;11.07;3.28;;;;;;;12.97;55.64;102350.22;2073094;28;20042;-83
2022/03/18 06:05:11;;;;;;;6.78;2.60;;;;;;;12.99;55.09;102353.81;2068092;28;20524;-83
2022/03/18 06:06:33;;;;;;;11.00;3.78;;;;;;;12.98;54.94;102354.66;2076818;28;20140;-83
2022/03/18 06:11:48;;;;;;;9.13;3.45;;;;;;;13.02;55.00;102365.41;2077946;28;20140;-84
2022/03/18 06:12:59;;;;;;;7.85;2.60;;;;;;;13.14;54.18;102364.91;2078957;28;20390;-82
2022/03/18 06:14:23;;;;;;;6.95;2.67;;;;;;;13.05;54.13;102364.63;2077865;28;20053;-83
2022/03/18 06:15:45;;;;;;;7.25;3.13;;;;;;;13.02;53.63;102370.69;2068416;28;20041;-83
2022/03/18 06:17:08;;;;;;;7.50;3.22;;;;;;;13.03;53.46;102368.97;2068546;28;20582;-83
2022/03/18 06:18:29;;;;;;;6.63;3.47;;;;;;;13.10;53.61;102370.94;2077854;28;20060;-83
2022/03/18 06:19:52;;;;;;;19.98;7.03;;;;;;;13.19;53.19;102376.59;2084741;28;20045;-83
2022/03/18 06:21:15;;;;;;;8.45;2.78;;;;;;;13.21;52.83;102372.22;2064327;28;20096;-83
2022/03/18 06:22:37;;;;;;;8.07;3.58;;;;;;;13.23;53.13;102370.50;2069021;28;20056;-83
2022/03/18 06:23:58;;;;;;;10.15;4.10;;;;;;;13.32;53.43;102373.47;2063626;28;20434;-83
2022/03/18 06:25:23;;;;;;;11.57;5.10;;;;;;;13.42;53.47;102369.31;2075139;28;20528;-83
2022/03/18 06:26:45;;;;;;;13.05;5.00;;;;;;;13.44;53.72;102370.25;2070818;28;20421;-83
2022/03/18 06:28:09;;;;;;;7.20;3.72;;;;;;;13.43;53.88;102384.38;2078533;28;20053;-84
2022/03/18 06:29:32;;;;;;;13.23;5.05;;;;;;;13.34;54.16;102371.72;2080785;28;20136;-83
2022/03/18 06:30:53;;;;;;;14.18;4.38;;;;;;;13.35;54.25;102373.53;2070561;28;20524;-83
2022/03/18 06:32:17;;;;;;;11.30;4.07;;;;;;;13.43;54.40;102387.03;2065603;28;20073;-83
2022/03/18 06:33:43;;;;;;;15.45;6.15;;;;;;;13.51;54.36;102390.81;2076345;28;20076;-82
2022/03/18 06:35:06;;;;;;;8.63;3.00;;;;;;;13.63;54.32;102388.53;2079679;28;20041;-84
2022/03/18 06:36:28;;;;;;;12.38;5.10;;;;;;;13.67;54.29;102387.75;2082782;28;20424;-84